createdAt,value
2023-03-28T00:01:40.976Z,99818.56
2023-03-28T00:04:11.514Z,99801.19
2023-03-28T00:06:38.796Z,99797.19
2023-03-28T00:09:05.874Z,99803.53
2023-03-28T00:11:32.962Z,99789.56
2023-03-28T00:14:01.135Z,99807.97
2023-03-28T00:16:32.657Z,99797.00
2023-03-28T00:19:01.031Z,99791.19
2023-03-28T00:21:29.562Z,99776.34
2023-03-28T00:24:02.007Z,99782.13
2023-03-28T00:26:30.526Z,99781.06
2023-03-28T00:28:58.056Z,99784.47
2023-03-28T00:31:26.360Z,99779.78
2023-03-28T00:33:53.813Z,99778.94
2023-03-28T00:36:23.061Z,99787.94
2023-03-28T00:38:50.340Z,99771.75
2023-03-28T00:41:18.434Z,99778.06
2023-03-28T00:43:46.794Z,99774.97
2023-03-28T00:46:22.959Z,99779.44
2023-03-28T00:48:52.422Z,99778.81
2023-03-28T00:51:20.983Z,99780.59
2023-03-28T00:53:49.312Z,99787.66
2023-03-28T00:56:18.927Z,99785.22
2023-03-28T00:58:47.939Z,99791.56
2023-03-28T01:01:15.933Z,99801.22
2023-03-28T01:03:46.437Z,99797.06
2023-03-28T01:06:16.201Z,99790.84
2023-03-28T01:08:47.154Z,99791.06
2023-03-28T01:11:15.972Z,99787.50
2023-03-28T01:13:45.846Z,99795.66
2023-03-28T01:16:14.266Z,99795.03
2023-03-28T01:18:42.672Z,99793.75
2023-03-28T01:21:26.248Z,99796.38
2023-03-28T01:24:11.352Z,99778.84
2023-03-28T01:26:45.325Z,99782.88
2023-03-28T01:29:27.797Z,99791.75
2023-03-28T01:32:15.739Z,99786.03
2023-03-28T01:35:15.473Z,99785.63
2023-03-28T01:37:55.448Z,99797.88
2023-03-28T01:40:45.996Z,99803.69
2023-03-28T01:43:21.811Z,99792.59
2023-03-28T01:45:54.055Z,99801.44
2023-03-28T01:48:21.216Z,99804.19
2023-03-28T01:50:51.903Z,99812.84
2023-03-28T01:53:30.466Z,99820.72
2023-03-28T01:56:03.805Z,99813.97
2023-03-28T01:58:36.863Z,99817.44
2023-03-28T02:01:15.625Z,99813.69
2023-03-28T02:03:49.101Z,99812.94
2023-03-28T02:06:38.666Z,99806.19
2023-03-28T02:09:11.964Z,99808.28
2023-03-28T02:12:09.851Z,99804.31
2023-03-28T02:14:53.992Z,99806.94
2023-03-28T02:17:45.505Z,99808.59
2023-03-28T02:20:38.813Z,99809.34
2023-03-28T02:23:22.699Z,99818.56
2023-03-28T02:26:10.627Z,99799.78
2023-03-28T02:28:58.232Z,99813.16
2023-03-28T02:31:32.926Z,99811.94
2023-03-28T02:34:01.675Z,99805.38
2023-03-28T02:36:47.911Z,99817.69
2023-03-28T02:39:21.480Z,99803.84
2023-03-28T02:42:07.373Z,99809.25
2023-03-28T02:44:46.583Z,99803.13
2023-03-28T02:47:14.153Z,99802.38
2023-03-28T02:49:50.547Z,99798.53
2023-03-28T02:52:36.930Z,99808.69
2023-03-28T02:57:51.034Z,99806.63
2023-03-28T03:00:19.488Z,99815.75
2023-03-28T03:02:49.281Z,99817.06
2023-03-28T03:05:16.581Z,99817.91
2023-03-28T03:07:43.626Z,99824.63
2023-03-28T03:10:11.973Z,99824.34
2023-03-28T03:12:39.026Z,99820.19
2023-03-28T03:15:07.255Z,99826.59
2023-03-28T03:18:04.477Z,99819.25
2023-03-28T03:20:34.185Z,99825.84
2023-03-28T03:23:03.120Z,99835.44
2023-03-28T03:25:33.528Z,99831.78
2023-03-28T03:28:13.186Z,99820.97
2023-03-28T03:30:41.212Z,99834.50
2023-03-28T03:33:25.397Z,99829.25
2023-03-28T03:36:04.046Z,99840.47
2023-03-28T03:38:31.304Z,99842.72
2023-03-28T03:40:58.981Z,99832.06
2023-03-28T03:43:27.801Z,99848.34
2023-03-28T03:45:56.329Z,99851.19
2023-03-28T03:48:23.672Z,99871.41
2023-03-28T03:50:56.684Z,99856.38
2023-03-28T03:53:23.858Z,99863.13
2023-03-28T03:56:00.847Z,99855.78
2023-03-28T03:58:29.862Z,99856.53
2023-03-28T04:00:58.743Z,99874.44
2023-03-28T04:03:34.366Z,99875.28
2023-03-28T04:06:05.254Z,99872.34
2023-03-28T04:08:33.354Z,99861.34
2023-03-28T04:11:00.678Z,99862.47
2023-03-28T04:13:28.801Z,99870.84
2023-03-28T04:16:01.109Z,99872.34
2023-03-28T04:18:54.309Z,99857.00
2023-03-28T04:21:27.646Z,99876.13
2023-03-28T04:23:56.405Z,99879.03
2023-03-28T04:26:35.632Z,99871.41
2023-03-28T04:29:06.305Z,99868.84
2023-03-28T04:31:38.967Z,99876.84
2023-03-28T04:34:33.957Z,99859.00
2023-03-28T04:37:10.044Z,99875.91
2023-03-28T04:39:49.272Z,99873.56
2023-03-28T04:42:38.373Z,99868.56
2023-03-28T04:45:11.597Z,99887.50
2023-03-28T04:47:40.974Z,99892.25
2023-03-28T04:50:15.450Z,99887.56
2023-03-28T04:52:42.536Z,99903.78
2023-03-28T04:55:10.392Z,99898.59
2023-03-28T04:57:38.744Z,99914.78
2023-03-28T05:00:13.103Z,99910.91
2023-03-28T05:03:18.472Z,99898.59
2023-03-28T05:05:56.492Z,99899.31
2023-03-28T05:08:25.080Z,99924.09
2023-03-28T05:10:52.125Z,99921.06
2023-03-28T05:13:22.228Z,99918.28
2023-03-28T05:16:01.508Z,99924.28
2023-03-28T05:18:56.221Z,99922.88
2023-03-28T05:21:44.867Z,99932.03
2023-03-28T05:24:12.026Z,99946.16
2023-03-28T05:26:39.199Z,99946.84
2023-03-28T05:29:06.627Z,99963.69
2023-03-28T05:31:33.845Z,99976.50
2023-03-28T05:34:15.830Z,99978.97
2023-03-28T05:36:46.381Z,99981.31
2023-03-28T05:39:23.697Z,99971.91
2023-03-28T05:41:52.670Z,99985.94
2023-03-28T05:44:19.696Z,99996.03
2023-03-28T05:47:05.166Z,99995.25
2023-03-28T05:49:32.261Z,100016.44
2023-03-28T05:51:59.434Z,100020.19
2023-03-28T05:54:26.599Z,100033.47
2023-03-28T05:56:54.069Z,100041.16
2023-03-28T05:59:27.228Z,100056.31
2023-03-28T06:01:55.479Z,100072.53
2023-03-28T06:04:22.978Z,100070.31
2023-03-28T06:06:51.626Z,100126.34
2023-03-28T06:09:24.994Z,100102.50
2023-03-28T06:11:58.633Z,100114.91
2023-03-28T06:14:26.416Z,100159.00
2023-03-28T06:16:56.075Z,100120.56
2023-03-28T06:19:23.545Z,100138.31
2023-03-28T06:21:53.956Z,100149.63
2023-03-28T06:24:21.186Z,100131.81
2023-03-28T06:26:48.322Z,100139.41
2023-03-28T06:29:19.746Z,100151.75
2023-03-28T06:31:48.846Z,100148.91
2023-03-28T06:34:17.258Z,100137.34
2023-03-28T06:36:55.028Z,100104.34
2023-03-28T06:39:23.161Z,100133.63
2023-03-28T06:41:55.885Z,100110.91
2023-03-28T06:44:30.805Z,100087.88
2023-03-28T06:47:06.724Z,100136.38
2023-03-28T06:49:34.265Z,100130.75
2023-03-28T06:52:31.195Z,100103.03
2023-03-28T06:55:00.383Z,100137.50
2023-03-28T06:57:27.530Z,100107.47
2023-03-28T07:00:07.322Z,100066.75
2023-03-28T07:02:54.566Z,100110.34
2023-03-28T07:05:21.790Z,100077.44
2023-03-28T07:07:49.470Z,100065.25
2023-03-28T07:10:16.767Z,100060.44
2023-03-28T07:12:44.185Z,99989.69
2023-03-28T07:15:11.524Z,99950.28
2023-03-28T07:17:38.732Z,99943.81
2023-03-28T07:20:06.261Z,99963.22
2023-03-28T07:22:33.420Z,99954.59
2023-03-28T07:25:00.567Z,99896.78
2023-03-28T07:27:27.707Z,99900.25
2023-03-28T07:29:54.860Z,99901.03
2023-03-28T07:32:22.387Z,99849.81
2023-03-28T07:34:49.427Z,99896.63
2023-03-28T07:37:23.750Z,99853.38
2023-03-28T07:40:07.783Z,99858.66
2023-03-28T07:42:34.941Z,99858.50
2023-03-28T07:45:02.051Z,99860.47
2023-03-28T07:47:30.622Z,99807.13
2023-03-28T07:49:57.828Z,99838.44
2023-03-28T07:52:26.584Z,99798.41
2023-03-28T07:54:54.104Z,99790.22
2023-03-28T07:57:21.221Z,99746.66
2023-03-28T07:59:58.049Z,99775.06
2023-03-28T08:02:26.087Z,99742.91
2023-03-28T08:04:54.111Z,99722.88
2023-03-28T08:07:25.715Z,99716.59
2023-03-28T08:09:54.423Z,99695.16
2023-03-28T08:12:26.929Z,99649.69
2023-03-28T08:14:54.009Z,99629.66
2023-03-28T08:17:23.013Z,99589.75
2023-03-28T08:19:51.553Z,99544.69
2023-03-28T08:22:21.772Z,99544.91
2023-03-28T08:24:59.454Z,99489.19
2023-03-28T08:27:26.541Z,99500.34
2023-03-28T08:29:58.394Z,99446.63
2023-03-28T08:32:26.838Z,99447.25
2023-03-28T08:34:57.713Z,99432.22
2023-03-28T08:37:27.852Z,99453.63
2023-03-28T08:39:55.459Z,99395.63
2023-03-28T08:42:42.803Z,99390.41
2023-03-28T08:45:13.021Z,99314.66
2023-03-28T08:47:51.340Z,99322.81
2023-03-28T08:50:28.056Z,99395.94
2023-03-28T08:52:55.956Z,99304.41
2023-03-28T08:55:23.615Z,99229.00
2023-03-28T08:57:53.155Z,99205.72
2023-03-28T09:00:27.534Z,99235.91
2023-03-28T09:02:55.961Z,99224.94
2023-03-28T09:05:32.315Z,99204.47
2023-03-28T09:08:19.170Z,99159.75
2023-03-28T09:11:26.282Z,99148.41
2023-03-28T09:14:01.681Z,99175.13
2023-03-28T09:16:47.686Z,99170.00
2023-03-28T09:19:47.747Z,99127.94
2023-03-28T09:22:54.491Z,99050.31
2023-03-28T09:25:27.272Z,99032.81
2023-03-28T09:27:56.445Z,98980.69
2023-03-28T09:30:32.480Z,98957.25
2023-03-28T09:33:03.155Z,98851.66
2023-03-28T09:35:31.152Z,98853.00
2023-03-28T09:38:02.351Z,98861.13
2023-03-28T09:40:30.688Z,98798.28
2023-03-28T09:43:46.465Z,98710.47
2023-03-28T09:46:47.082Z,98684.09
2023-03-28T09:49:29.556Z,98672.75
2023-03-28T09:52:02.791Z,98671.75
2023-03-28T09:54:32.194Z,98654.22
2023-03-28T09:57:04.267Z,98676.72
2023-03-28T10:00:07.356Z,98673.25
2023-03-28T10:02:54.160Z,98669.75
2023-03-28T10:05:31.729Z,98654.59
2023-03-28T10:08:22.434Z,98684.25
2023-03-28T10:11:15.221Z,98696.63
2023-03-28T10:13:45.616Z,98652.16
2023-03-28T10:16:15.384Z,98623.19
2023-03-28T10:18:54.871Z,98628.34
2023-03-28T10:21:34.562Z,98630.50
2023-03-28T10:24:13.094Z,98590.03
2023-03-28T10:26:42.932Z,98619.84
2023-03-28T10:29:13.286Z,98606.56
2023-03-28T10:31:47.755Z,98582.78
2023-03-28T10:34:27.565Z,98581.09
2023-03-28T10:37:21.992Z,98537.34
2023-03-28T10:40:05.489Z,98573.59
2023-03-28T10:42:51.405Z,98518.28
2023-03-28T10:45:39.342Z,98485.94
2023-03-28T10:48:14.252Z,98431.41
2023-03-28T10:50:46.074Z,98370.53
2023-03-28T10:53:25.144Z,98338.03
2023-03-28T10:56:10.889Z,98327.84
2023-03-28T10:59:01.512Z,98364.38
2023-03-28T11:01:47.143Z,98340.22
2023-03-28T11:04:33.510Z,98278.63
2023-03-28T11:07:00.806Z,98250.56
2023-03-28T11:10:11.956Z,98214.34
2023-03-28T11:13:07.810Z,98160.19
2023-03-28T11:15:52.797Z,98168.44
2023-03-28T11:18:47.739Z,98033.28
2023-03-28T11:21:26.232Z,98039.78
2023-03-28T11:24:11.726Z,98070.31
2023-03-28T11:27:16.048Z,98001.28
2023-03-28T11:30:01.503Z,97934.50
2023-03-28T11:32:40.318Z,97924.56
2023-03-28T11:35:14.168Z,97910.78
2023-03-28T11:37:51.471Z,97831.88
2023-03-28T11:40:23.773Z,97818.69
2023-03-28T11:43:03.326Z,97807.38
2023-03-28T11:45:51.074Z,97714.50
2023-03-28T11:48:39.924Z,97681.34
2023-03-28T11:51:16.086Z,97759.31
2023-03-28T11:53:57.830Z,97721.09
2023-03-28T11:56:31.391Z,97674.53
2023-03-28T11:59:43.525Z,97707.28
2023-03-28T12:02:18.407Z,97623.56
2023-03-28T12:04:49.772Z,97560.75
2023-03-28T12:07:22.924Z,97548.50
2023-03-28T12:09:57.523Z,97464.31
2023-03-28T12:12:29.132Z,97429.84
2023-03-28T12:15:05.777Z,97314.75
2023-03-28T12:17:45.955Z,97231.31
2023-03-28T12:20:16.882Z,97205.66
2023-03-28T12:22:47.403Z,97198.84
2023-03-28T12:25:29.812Z,97147.97
2023-03-28T12:28:11.142Z,97114.31
2023-03-28T12:30:49.723Z,96973.06
2023-03-28T12:33:23.300Z,96875.56
2023-03-28T12:36:04.786Z,96795.00
2023-03-28T12:38:42.336Z,96766.94
2023-03-28T12:41:29.952Z,96702.09
2023-03-28T12:43:59.609Z,96629.47
2023-03-28T12:46:46.275Z,96537.91
2023-03-28T12:49:14.757Z,96481.59
2023-03-28T12:51:50.593Z,96352.19
2023-03-28T12:54:24.068Z,96251.25
2023-03-28T12:57:04.484Z,96183.81
2023-03-28T12:59:43.875Z,96182.22
2023-03-28T13:02:41.291Z,96155.41
2023-03-28T13:05:15.966Z,96123.63
2023-03-28T13:07:49.153Z,96047.38
2023-03-28T13:10:25.158Z,95993.47
2023-03-28T13:12:56.871Z,95975.38
2023-03-28T13:15:26.057Z,95949.94
2023-03-28T13:18:11.998Z,95870.72
2023-03-28T13:20:46.000Z,95845.69
2023-03-28T13:23:17.910Z,95836.00
2023-03-28T13:25:55.617Z,95797.28
2023-03-28T13:28:25.553Z,95770.47
2023-03-28T13:31:04.914Z,95752.34
2023-03-28T13:33:33.233Z,95733.78
2023-03-28T13:36:00.558Z,95748.72
2023-03-28T13:38:27.829Z,95742.44
2023-03-28T13:41:00.536Z,95711.66
2023-03-28T13:43:42.749Z,95684.53
2023-03-28T13:46:18.840Z,95636.91
2023-03-28T13:48:49.637Z,95602.97
2023-03-28T13:51:19.241Z,95577.88
2023-03-28T13:53:48.853Z,95550.81
2023-03-28T13:56:29.600Z,95561.25
2023-03-28T13:58:58.694Z,95556.31
2023-03-28T14:01:27.252Z,95544.38
2023-03-28T14:03:55.175Z,95532.50
2023-03-28T14:06:26.665Z,95520.22
2023-03-28T14:08:55.394Z,95517.38
2023-03-28T14:11:30.225Z,95538.69
2023-03-28T14:14:09.334Z,95559.03
2023-03-28T14:16:37.240Z,95535.53
2023-03-28T14:19:05.674Z,95525.63
2023-03-28T14:21:33.183Z,95537.63
2023-03-28T14:24:02.068Z,95559.41
2023-03-28T14:26:30.902Z,95562.66
2023-03-28T14:28:59.890Z,95542.69
2023-03-28T14:31:30.253Z,95542.81
2023-03-28T14:33:58.690Z,95549.44
2023-03-28T14:36:31.554Z,95545.63
2023-03-28T14:39:06.620Z,95542.84
2023-03-28T14:41:35.205Z,95540.13
2023-03-28T14:44:05.536Z,95545.91
2023-03-28T14:46:33.408Z,95542.50
2023-03-28T14:49:01.809Z,95542.75
2023-03-28T14:51:38.730Z,95518.03
2023-03-28T14:54:05.820Z,95541.19
2023-03-28T14:56:33.004Z,95536.63
2023-03-28T14:59:01.469Z,95534.38
2023-03-28T15:01:30.585Z,95511.94
2023-03-28T15:04:06.610Z,95508.94
2023-03-28T15:06:34.410Z,95509.03
2023-03-28T15:09:08.562Z,95484.28
2023-03-28T15:11:37.928Z,95484.28
2023-03-28T15:14:07.647Z,95484.34
2023-03-28T15:16:40.813Z,95470.16
2023-03-28T15:19:31.178Z,95478.16
2023-03-28T15:22:01.417Z,95483.44
2023-03-28T15:24:28.816Z,95480.13
2023-03-28T15:26:57.894Z,95485.91
2023-03-28T15:29:25.700Z,95475.69
2023-03-28T15:31:56.303Z,95481.66
2023-03-28T15:34:27.524Z,95473.34
2023-03-28T15:36:59.110Z,95465.84
2023-03-28T15:39:27.511Z,95472.38
2023-03-28T15:41:58.940Z,95474.72
2023-03-28T15:44:31.215Z,95485.94
2023-03-28T15:47:03.230Z,95485.63
2023-03-28T15:49:34.552Z,95495.03
2023-03-28T15:52:03.492Z,95508.56
2023-03-28T15:54:32.204Z,95514.00
2023-03-28T15:57:01.920Z,95520.06
2023-03-28T15:59:35.519Z,95514.88
2023-03-28T16:02:29.954Z,95521.03
2023-03-28T16:04:56.997Z,95525.31
2023-03-28T16:07:24.064Z,95523.28
2023-03-28T16:09:51.435Z,95522.78
2023-03-28T16:12:19.337Z,95513.69
2023-03-28T16:15:07.241Z,95505.06
2023-03-28T16:17:58.965Z,95519.06
2023-03-28T16:20:39.810Z,95525.34
2023-03-28T16:23:07.284Z,95525.81
2023-03-28T16:25:34.420Z,95544.34
2023-03-28T16:28:01.642Z,95548.72
2023-03-28T16:30:30.840Z,95548.72
2023-03-28T16:32:58.126Z,95561.13
2023-03-28T16:35:27.111Z,95566.19
2023-03-28T16:37:55.120Z,95575.94
2023-03-28T16:40:22.680Z,95580.44
2023-03-28T16:42:50.335Z,95580.44
2023-03-28T16:45:17.539Z,95602.66
2023-03-28T16:47:44.700Z,95616.69
2023-03-28T16:50:12.204Z,95627.47
2023-03-28T16:52:40.384Z,95627.78
2023-03-28T16:55:08.809Z,95635.97
2023-03-28T16:57:36.220Z,95652.44
2023-03-28T17:00:07.271Z,95655.19
2023-03-28T17:02:34.427Z,95655.53
2023-03-28T17:05:01.579Z,95640.13
2023-03-28T17:07:28.762Z,95644.09
2023-03-28T17:09:55.832Z,95658.56
2023-03-28T17:12:24.158Z,95668.97
2023-03-28T17:14:51.310Z,95669.09
2023-03-28T17:17:18.721Z,95690.47
2023-03-28T17:19:45.839Z,95699.94
2023-03-28T17:22:13.274Z,95705.25
2023-03-28T17:24:40.665Z,95728.84
2023-03-28T17:27:07.743Z,95753.81
2023-03-28T17:29:34.915Z,95763.84
2023-03-28T17:32:03.008Z,95769.97
2023-03-28T17:34:33.576Z,95784.66
2023-03-28T17:37:00.730Z,95784.28
2023-03-28T17:39:28.656Z,95798.06
2023-03-28T17:41:55.749Z,95825.66
2023-03-28T17:44:22.797Z,95846.56
2023-03-28T17:46:49.945Z,95859.72
2023-03-28T17:49:18.324Z,95876.34
2023-03-28T17:51:45.752Z,95898.25
2023-03-28T17:54:12.975Z,95914.66
2023-03-28T17:56:40.299Z,95940.03
2023-03-28T17:59:07.424Z,95970.53
2023-03-28T18:01:35.036Z,95968.53
2023-03-28T18:04:02.354Z,95996.56
2023-03-28T18:06:48.279Z,96016.63
2023-03-28T18:09:16.673Z,96035.00
2023-03-28T18:11:43.848Z,96029.97
2023-03-28T18:14:12.420Z,96034.34
2023-03-28T18:16:40.132Z,96041.94
2023-03-28T18:19:09.112Z,96066.25
2023-03-28T18:21:37.941Z,96092.66
2023-03-28T18:24:05.464Z,96108.59
2023-03-28T18:26:33.036Z,96130.25
2023-03-28T18:29:00.334Z,96159.28
2023-03-28T18:31:28.480Z,96179.09
2023-03-28T18:33:57.189Z,96184.50
2023-03-28T18:36:24.834Z,96226.19
2023-03-28T18:38:55.921Z,96264.16
2023-03-28T18:41:23.968Z,96290.69
2023-03-28T18:43:51.353Z,96331.78
2023-03-28T18:46:18.611Z,96354.84
2023-03-28T18:48:45.795Z,96376.47
2023-03-28T18:51:13.711Z,96401.97
2023-03-28T18:53:40.964Z,96420.56
2023-03-28T18:56:08.843Z,96453.19
2023-03-28T18:58:39.026Z,96488.50
2023-03-28T19:01:07.111Z,96500.94
2023-03-28T19:03:40.588Z,96527.28
2023-03-28T19:06:08.509Z,96554.19
2023-03-28T19:08:35.707Z,96570.94
2023-03-28T19:11:08.173Z,96565.44
2023-03-28T19:13:35.510Z,96596.44
2023-03-28T19:16:04.297Z,96631.53
2023-03-28T19:18:31.494Z,96649.84
2023-03-28T19:20:58.661Z,96668.59
2023-03-28T19:23:27.306Z,96689.03
2023-03-28T19:25:54.892Z,96693.91
2023-03-28T19:28:22.166Z,96696.34
2023-03-28T19:30:55.798Z,96702.28
2023-03-28T19:33:22.963Z,96726.94
2023-03-28T19:35:50.220Z,96728.16
2023-03-28T19:38:17.264Z,96731.63
2023-03-28T19:40:44.482Z,96745.72
2023-03-28T19:43:11.976Z,96758.72
2023-03-28T19:45:39.604Z,96768.09
2023-03-28T19:48:07.201Z,96759.94
2023-03-28T19:50:35.784Z,96770.53
2023-03-28T19:53:03.299Z,96761.91
2023-03-28T19:55:30.736Z,96774.53
2023-03-28T19:57:58.309Z,96772.06
2023-03-28T20:00:25.590Z,96796.38
2023-03-28T20:02:52.837Z,96823.28
2023-03-28T20:05:19.898Z,96838.59
2023-03-28T20:07:47.025Z,96857.34
2023-03-28T20:10:14.103Z,96884.22
2023-03-28T20:12:41.413Z,96916.47
2023-03-28T20:15:09.073Z,96953.47
2023-03-28T20:17:36.271Z,96981.59
2023-03-28T20:20:04.933Z,97004.44
2023-03-28T20:22:34.301Z,97034.00
2023-03-28T20:25:01.881Z,97054.81
2023-03-28T20:27:29.296Z,97066.63
2023-03-28T20:29:56.392Z,97078.59
2023-03-28T20:32:23.524Z,97064.44
2023-03-28T20:34:50.669Z,97086.72
2023-03-28T20:37:18.169Z,97120.56
2023-03-28T20:39:47.238Z,97118.91
2023-03-28T20:42:14.359Z,97149.06
2023-03-28T20:44:41.622Z,97160.47
2023-03-28T20:47:10.536Z,97178.38
2023-03-28T20:49:38.414Z,97164.88
2023-03-28T20:52:07.860Z,97164.69
2023-03-28T20:54:35.189Z,97180.09
2023-03-28T20:57:02.451Z,97188.72
2023-03-28T20:59:29.583Z,97185.59
2023-03-28T21:01:56.661Z,97195.66
2023-03-28T21:04:23.793Z,97190.72
2023-03-28T21:06:50.878Z,97208.44
2023-03-28T21:09:18.248Z,97206.06
2023-03-28T21:11:45.727Z,97217.00
2023-03-28T21:14:13.667Z,97227.25
2023-03-28T21:16:40.881Z,97227.13
2023-03-28T21:19:08.186Z,97242.84
2023-03-28T21:21:35.317Z,97260.56
2023-03-28T21:24:03.058Z,97279.56
2023-03-28T21:26:31.282Z,97307.34
2023-03-28T21:28:58.761Z,97324.34
2023-03-28T21:31:27.251Z,97355.06
2023-03-28T21:33:56.842Z,97315.88
2023-03-28T21:36:25.050Z,97334.13
2023-03-28T21:38:52.149Z,97338.59
2023-03-28T21:41:19.515Z,97345.28
2023-03-28T21:43:48.218Z,97333.44
2023-03-28T21:46:15.468Z,97351.78
2023-03-28T21:48:44.601Z,97368.31
2023-03-28T21:51:11.987Z,97372.16
2023-03-28T21:53:39.626Z,97400.41
2023-03-28T21:56:06.927Z,97423.72
2023-03-28T21:58:34.534Z,97417.31
2023-03-28T22:01:02.898Z,97426.56
2023-03-28T22:03:30.657Z,97416.41
2023-03-28T22:05:57.903Z,97428.97
2023-03-28T22:08:25.032Z,97433.28
2023-03-28T22:10:58.376Z,97432.44
2023-03-28T22:13:25.719Z,97437.56
2023-03-28T22:15:53.359Z,97431.28
2023-03-28T22:18:20.687Z,97436.75
2023-03-28T22:20:53.031Z,97440.88
2023-03-28T22:23:21.752Z,97462.50
2023-03-28T22:25:48.900Z,97468.44
2023-03-28T22:28:16.169Z,97469.63
2023-03-28T22:30:43.359Z,97446.78
2023-03-28T22:33:11.121Z,97440.19
2023-03-28T22:35:38.509Z,97445.47
2023-03-28T22:38:06.056Z,97457.38
2023-03-28T22:40:33.316Z,97458.56
2023-03-28T22:43:00.588Z,97485.47
2023-03-28T22:45:27.759Z,97463.03
2023-03-28T22:47:58.382Z,97475.13
2023-03-28T22:50:26.757Z,97480.41
2023-03-28T22:52:53.870Z,97483.88
2023-03-28T22:55:22.858Z,97476.47
2023-03-28T22:57:51.600Z,97477.00
2023-03-28T23:00:22.935Z,97482.97
2023-03-28T23:02:53.631Z,97507.81
2023-03-28T23:05:20.856Z,97532.53
2023-03-28T23:07:48.802Z,97542.97
2023-03-28T23:10:17.582Z,97540.84
2023-03-28T23:12:45.400Z,97568.13
2023-03-28T23:15:12.581Z,97582.84
2023-03-28T23:17:39.957Z,97588.81
2023-03-28T23:20:12.883Z,97614.16
2023-03-28T23:22:41.042Z,97630.53
2023-03-28T23:25:08.776Z,97646.25
2023-03-28T23:27:35.898Z,97665.31
2023-03-28T23:30:03.013Z,97698.75
2023-03-28T23:32:30.502Z,97704.34
2023-03-28T23:34:57.601Z,97717.59
2023-03-28T23:37:27.389Z,97724.56
2023-03-28T23:39:55.501Z,97731.84
2023-03-28T23:42:23.365Z,97761.97
2023-03-28T23:44:50.824Z,97760.66
2023-03-28T23:47:20.299Z,97793.91
2023-03-28T23:49:47.607Z,97806.00
2023-03-28T23:52:16.255Z,97808.50
2023-03-28T23:54:43.481Z,97819.59
2023-03-28T23:57:10.953Z,97836.28
2023-03-28T23:59:38.058Z,97834.47
